Time;durP1;ratioP1;P1;durP2;ratioP2;P2;SDS_P1;SDS_P2;PMS_P1;PMS_P2;Temp;Humidity;BMP_temperature;BMP_pressure;BME280_temperature;BME280_humidity;BME280_pressure;Samples;Min_cycle;Max_cycle;Signal;HPM_P1;HPM_P2
2022/08/14 00:02:07;;;;;;;4.73;4.33;;;20.60;66.60;;;;;;6062672;23;20430;-74
2022/08/14 00:04:35;;;;;;;4.60;4.20;;;20.40;67.80;;;;;;6062368;23;20479;-73
2022/08/14 00:07:03;;;;;;;5.20;4.80;;;20.20;68.90;;;;;;6062461;23;20423;-73
2022/08/14 00:09:30;;;;;;;4.40;4.10;;;20.00;69.50;;;;;;6062615;23;21013;-73
2022/08/14 00:11:57;;;;;;;4.63;4.20;;;19.90;69.90;;;;;;6062270;23;20783;-73
2022/08/14 00:14:28;;;;;;;4.53;4.23;;;19.90;70.40;;;;;;6062478;23;20420;-73
2022/08/14 00:16:55;;;;;;;4.97;4.57;;;19.80;71.10;;;;;;6062423;23;20415;-73
2022/08/14 00:19:23;;;;;;;4.50;4.20;;;19.80;71.80;;;;;;6062795;23;20436;-73
2022/08/14 00:21:51;;;;;;;3.80;3.60;;;19.70;72.40;;;;;;6062557;23;20420;-73
2022/08/14 00:24:19;;;;;;;4.67;4.37;;;19.60;73.00;;;;;;6062183;23;20879;-73
2022/08/14 00:26:46;;;;;;;4.20;3.90;;;19.60;73.30;;;;;;6062356;23;20826;-73
2022/08/14 00:29:14;;;;;;;4.40;4.00;;;19.60;73.50;;;;;;6062586;23;20491;-73
2022/08/14 00:31:42;;;;;;;5.07;4.23;;;19.60;73.70;;;;;;6062888;23;20468;-73
2022/08/14 00:34:09;;;;;;;4.77;4.23;;;19.60;74.10;;;;;;6062797;23;20423;-74
2022/08/14 00:36:37;;;;;;;4.47;4.13;;;19.50;74.80;;;;;;6062221;23;20506;-73
2022/08/14 00:39:04;;;;;;;4.73;4.33;;;19.50;75.60;;;;;;6062741;23;20458;-74
2022/08/14 00:41:32;;;;;;;5.60;4.70;;;19.40;76.20;;;;;;6062437;23;20474;-73
2022/08/14 00:43:59;;;;;;;4.27;3.97;;;19.30;77.00;;;;;;6062497;23;20439;-73
2022/08/14 00:46:26;;;;;;;4.20;3.90;;;19.20;77.70;;;;;;6062170;23;20442;-73
2022/08/14 00:48:55;;;;;;;4.20;3.80;;;19.00;78.50;;;;;;6062255;23;20944;-73
2022/08/14 00:51:22;;;;;;;4.13;3.83;;;19.00;79.60;;;;;;6062692;23;20423;-73
2022/08/14 00:53:50;;;;;;;4.10;3.80;;;18.90;80.20;;;;;;6062745;23;20427;-73
2022/08/14 00:56:19;;;;;;;4.00;3.70;;;18.90;80.90;;;;;;6061740;23;20419;-73
2022/08/14 00:58:46;;;;;;;4.27;3.40;;;18.80;81.30;;;;;;6062401;23;20478;-73
2022/08/14 01:01:15;;;;;;;3.60;3.40;;;18.80;81.80;;;;;;6062713;23;20434;-73
2022/08/14 01:03:42;;;;;;;3.87;3.57;;;18.70;82.10;;;;;;6062223;23;20431;-73
2022/08/14 01:06:12;;;;;;;4.07;3.67;;;18.70;82.30;;;;;;6062043;23;20483;-73
2022/08/14 01:08:40;;;;;;;3.83;3.43;;;18.70;82.80;;;;;;6062349;23;20420;-73
2022/08/14 01:11:08;;;;;;;3.43;3.23;;;18.70;83.10;;;;;;6062103;23;21106;-73
2022/08/14 01:13:38;;;;;;;3.83;3.53;;;18.60;83.50;;;;;;6061941;23;20903;-73
2022/08/14 01:16:09;;;;;;;3.50;3.20;;;18.60;83.80;;;;;;6062462;23;20415;-73
2022/08/14 01:21:40;;;;;;;3.63;3.33;;;18.70;84.10;;;;;;5919079;24;20917;-74
2022/08/14 01:24:09;;;;;;;3.97;3.67;;;18.70;84.40;;;;;;5919182;24;20424;-73
2022/08/14 01:26:36;;;;;;;4.50;4.20;;;18.70;84.60;;;;;;5985868;23;20419;-73
2022/08/14 01:29:05;;;;;;;4.07;3.70;;;18.70;84.70;;;;;;6061818;23;20950;-73
2022/08/14 01:31:36;;;;;;;3.70;3.40;;;18.60;85.10;;;;;;6062068;23;20943;-73
2022/08/14 01:34:05;;;;;;;3.70;3.40;;;18.60;85.60;;;;;;6061960;23;20489;-73
2022/08/14 01:36:36;;;;;;;3.90;3.50;;;18.60;85.90;;;;;;6061829;23;20459;-73
2022/08/14 01:39:08;;;;;;;4.13;3.83;;;18.60;86.50;;;;;;6062170;23;20447;-73
2022/08/14 01:41:36;;;;;;;3.63;3.20;;;18.50;86.90;;;;;;6062151;23;20539;-73
2022/08/14 01:44:06;;;;;;;4.17;3.77;;;18.50;87.30;;;;;;6062025;23;20427;-73
2022/08/14 01:46:36;;;;;;;3.53;3.30;;;18.40;87.70;;;;;;6061613;23;20450;-73
2022/08/14 01:49:06;;;;;;;4.00;3.60;;;18.40;88.20;;;;;;6062027;23;20478;-73
2022/08/14 01:51:33;;;;;;;3.50;3.30;;;18.30;88.60;;;;;;6062072;23;20775;-73
2022/08/14 01:54:04;;;;;;;4.30;3.90;;;18.30;89.00;;;;;;6062143;23;20928;-73
2022/08/14 01:56:38;;;;;;;3.60;3.30;;;18.30;89.10;;;;;;6061648;23;20426;-73
2022/08/14 01:59:06;;;;;;;4.50;3.97;;;18.40;89.60;;;;;;6061695;23;20454;-73
2022/08/14 02:01:36;;;;;;;4.00;3.80;;;18.30;89.70;;;;;;6062308;23;20431;-74
2022/08/14 02:04:04;;;;;;;3.80;3.60;;;18.30;90.00;;;;;;6062447;23;20427;-73
2022/08/14 02:06:31;;;;;;;4.13;3.83;;;18.20;90.40;;;;;;6061492;23;20451;-73
2022/08/14 02:08:59;;;;;;;3.97;3.67;;;18.10;90.60;;;;;;6061762;23;21021;-73
2022/08/14 02:11:26;;;;;;;4.50;4.07;;;18.20;91.10;;;;;;6061401;23;20435;-73
2022/08/14 02:13:59;;;;;;;4.47;4.10;;;18.00;91.30;;;;;;6062106;23;20431;-73
2022/08/14 02:16:31;;;;;;;4.33;4.03;;;17.90;91.50;;;;;;6063290;23;20428;-73
2022/08/14 02:19:02;;;;;;;4.23;3.93;;;17.90;91.70;;;;;;6063238;23;20482;-73
2022/08/14 02:21:31;;;;;;;4.20;3.90;;;17.70;92.10;;;;;;6063387;23;20415;-73
2022/08/14 02:24:00;;;;;;;4.37;4.03;;;17.70;92.30;;;;;;6063238;23;20469;-73
2022/08/14 02:26:30;;;;;;;4.90;4.40;;;17.70;92.50;;;;;;6063301;23;20457;-73
2022/08/14 02:29:00;;;;;;;4.50;4.20;;;17.70;92.70;;;;;;6063247;23;20450;-73
2022/08/14 02:31:32;;;;;;;5.10;4.70;;;17.60;93.00;;;;;;6063577;23;20427;-73
2022/08/14 02:33:59;;;;;;;4.87;4.47;;;17.50;93.30;;;;;;6063237;23;20946;-73
2022/08/14 02:36:26;;;;;;;4.87;4.53;;;17.50;93.60;;;;;;6062551;23;20929;-73
2022/08/14 02:38:53;;;;;;;5.57;4.30;;;17.40;93.80;;;;;;6062969;23;20959;-73
2022/08/14 02:41:22;;;;;;;5.17;4.27;;;17.40;94.00;;;;;;6063148;23;20455;-73
2022/08/14 02:43:49;;;;;;;4.50;4.20;;;17.40;94.10;;;;;;6063251;23;20786;-73
2022/08/14 02:46:18;;;;;;;4.47;4.07;;;17.40;94.20;;;;;;6062784;23;20944;-73
2022/08/14 02:48:45;;;;;;;4.20;3.80;;;17.30;94.40;;;;;;6062867;23;20822;-73
2022/08/14 02:51:14;;;;;;;4.47;4.17;;;17.40;94.60;;;;;;6062696;23;20467;-73
2022/08/14 02:53:44;;;;;;;4.40;4.10;;;17.20;94.70;;;;;;6063254;23;20830;-73
2022/08/14 02:56:15;;;;;;;4.80;4.27;;;17.30;94.90;;;;;;6061332;23;20794;-74
2022/08/14 02:58:45;;;;;;;4.60;4.30;;;17.30;95.00;;;;;;6062352;23;20513;-73
2022/08/14 03:01:14;;;;;;;5.00;4.50;;;17.40;94.90;;;;;;6062507;23;20758;-73
2022/08/14 03:03:43;;;;;;;4.20;3.90;;;17.40;95.10;;;;;;6062899;23;20441;-73
2022/08/14 03:06:12;;;;;;;4.03;3.83;;;17.50;95.40;;;;;;6062807;23;20803;-73
2022/08/14 03:08:41;;;;;;;4.63;4.33;;;17.20;95.50;;;;;;6063317;23;20550;-73
2022/08/14 03:11:10;;;;;;;4.70;4.40;;;17.20;95.80;;;;;;6062503;23;20503;-73
2022/08/14 03:13:39;;;;;;;4.53;4.13;;;17.10;96.10;;;;;;6062982;23;20439;-73
2022/08/14 03:16:13;;;;;;;5.83;4.23;;;17.00;96.30;;;;;;6062467;23;20428;-73
2022/08/14 03:18:44;;;;;;;4.53;4.23;;;17.00;96.80;;;;;;6062928;23;20450;-73
2022/08/14 03:21:14;;;;;;;4.07;3.80;;;16.90;97.20;;;;;;6063187;23;20432;-73
2022/08/14 03:23:41;;;;;;;4.07;3.80;;;16.90;97.50;;;;;;6062675;23;20424;-73
2022/08/14 03:26:09;;;;;;;4.80;4.07;;;16.90;97.50;;;;;;6062082;23;20469;-73
2022/08/14 03:28:39;;;;;;;4.30;4.00;;;16.90;97.60;;;;;;6063380;23;20919;-73
2022/08/14 03:31:07;;;;;;;4.90;3.87;;;17.00;97.70;;;;;;6063182;23;20467;-73
2022/08/14 03:33:35;;;;;;;4.90;4.50;;;17.00;97.80;;;;;;6063122;23;20454;-72
2022/08/14 03:36:07;;;;;;;4.60;4.20;;;17.00;97.90;;;;;;6062465;23;20503;-73
2022/08/14 03:38:41;;;;;;;4.23;3.93;;;17.10;97.90;;;;;;6062868;23;20470;-74
2022/08/14 03:41:15;;;;;;;4.23;3.93;;;17.00;97.90;;;;;;6063089;23;20430;-73
2022/08/14 03:43:42;;;;;;;4.30;4.00;;;17.00;97.90;;;;;;6063081;23;20423;-73
2022/08/14 03:46:10;;;;;;;5.30;4.90;;;17.10;98.00;;;;;;6062370;23;21044;-73
2022/08/14 03:48:38;;;;;;;4.87;4.47;;;17.10;98.00;;;;;;6062909;23;20447;-73
2022/08/14 03:51:08;;;;;;;5.00;4.60;;;17.10;98.10;;;;;;6062930;23;20467;-73
2022/08/14 03:53:36;;;;;;;5.03;4.67;;;17.10;98.20;;;;;;6062498;23;20419;-73
2022/08/14 03:56:04;;;;;;;4.93;4.53;;;17.10;98.30;;;;;;6062932;23;20420;-73
2022/08/14 03:58:31;;;;;;;4.90;4.60;;;17.10;98.50;;;;;;6063081;23;20497;-73
2022/08/14 04:00:59;;;;;;;5.10;4.70;;;17.10;98.60;;;;;;6063086;23;20431;-73
2022/08/14 04:03:26;;;;;;;4.47;4.17;;;17.00;98.50;;;;;;6062978;23;20497;-73
2022/08/14 04:05:53;;;;;;;4.93;4.63;;;16.90;98.80;;;;;;6062270;23;20415;-73
2022/08/14 04:08:22;;;;;;;4.50;4.20;;;16.80;99.00;;;;;;6062762;23;20415;-73
2022/08/14 04:10:49;;;;;;;4.53;4.13;;;16.80;99.20;;;;;;6063057;23;20494;-73
2022/08/14 04:13:17;;;;;;;4.87;4.47;;;16.80;99.20;;;;;;6062720;23;20847;-73
2022/08/14 04:15:44;;;;;;;4.40;4.10;;;16.80;99.20;;;;;;6062302;23;20473;-74
2022/08/14 04:18:11;;;;;;;4.27;3.97;;;16.80;99.30;;;;;;6062799;23;20427;-73
2022/08/14 04:20:41;;;;;;;4.67;4.23;;;16.80;99.40;;;;;;6062763;23;20964;-74
2022/08/14 04:23:09;;;;;;;4.67;4.37;;;16.70;99.70;;;;;;6063125;23;20431;-74
2022/08/14 04:25:38;;;;;;;5.00;4.70;;;16.70;99.90;;;;;;6062546;23;20466;-73
2022/08/14 04:28:08;;;;;;;4.67;4.40;;;16.60;99.90;;;;;;6062639;23;20459;-74
2022/08/14 04:30:38;;;;;;;5.10;4.73;;;16.50;99.90;;;;;;6062371;23;20467;-73
2022/08/14 04:33:05;;;;;;;5.40;4.70;;;16.40;99.90;;;;;;6062968;23;20454;-74
2022/08/14 04:35:32;;;;;;;5.03;4.63;;;16.40;99.90;;;;;;6062261;23;20435;-74
2022/08/14 04:43:37;;;;;;;6.07;5.60;;;16.30;99.90;;;;;;6062916;23;20434;-73
2022/08/14 04:46:04;;;;;;;6.00;5.40;;;16.30;99.90;;;;;;6062668;23;20502;-73
2022/08/14 04:48:30;;;;;;;5.10;4.70;;;16.30;99.90;;;;;;6062397;23;20958;-73
2022/08/14 04:50:58;;;;;;;5.17;4.77;;;16.30;99.90;;;;;;6062564;23;20466;-73
2022/08/14 04:53:27;;;;;;;5.07;4.63;;;16.30;99.90;;;;;;6062917;23;20494;-73
2022/08/14 04:55:56;;;;;;;4.93;4.63;;;16.30;99.90;;;;;;6062299;23;20424;-73
2022/08/14 04:58:26;;;;;;;5.30;4.90;;;16.40;99.90;;;;;;6062493;23;20482;-73
2022/08/14 05:00:54;;;;;;;5.13;4.83;;;16.50;99.90;;;;;;6062736;23;20432;-74
2022/08/14 05:03:24;;;;;;;4.50;4.10;;;16.60;99.90;;;;;;6062959;23;20415;-74
2022/08/14 05:05:53;;;;;;;4.87;4.37;;;16.60;99.90;;;;;;6062353;23;20466;-74
2022/08/14 05:08:21;;;;;;;4.90;4.60;;;16.70;99.90;;;;;;6062573;23;20498;-74
2022/08/14 05:10:50;;;;;;;6.67;4.53;;;16.70;99.90;;;;;;6062079;23;20822;-73
2022/08/14 05:13:20;;;;;;;4.80;4.50;;;16.80;99.90;;;;;;6062713;23;20423;-74
2022/08/14 05:15:48;;;;;;;4.70;4.40;;;16.80;99.90;;;;;;6062541;23;20432;-74
2022/08/14 05:18:18;;;;;;;5.60;5.20;;;16.90;99.90;;;;;;6062596;23;20443;-74
2022/08/14 05:20:49;;;;;;;4.97;4.57;;;16.90;99.90;;;;;;6062496;23;20423;-74
2022/08/14 05:23:19;;;;;;;4.87;4.57;;;17.00;99.90;;;;;;6062525;23;20437;-73
2022/08/14 05:25:47;;;;;;;4.77;4.40;;;17.00;99.90;;;;;;6062277;23;20431;-74
2022/08/14 05:28:17;;;;;;;5.10;4.77;;;17.10;99.90;;;;;;6062282;23;20499;-74
2022/08/14 05:30:47;;;;;;;4.77;4.47;;;17.10;99.90;;;;;;6062504;23;20542;-74
2022/08/14 05:33:17;;;;;;;4.53;4.17;;;17.10;99.90;;;;;;6062416;23;20431;-74
2022/08/14 05:35:45;;;;;;;4.90;4.50;;;17.10;99.90;;;;;;6061825;23;20432;-73
2022/08/14 05:38:15;;;;;;;4.77;4.33;;;17.20;99.90;;;;;;6062166;23;20454;-73
2022/08/14 05:40:44;;;;;;;5.87;5.33;;;17.20;99.90;;;;;;6062601;23;20502;-74
2022/08/14 05:43:12;;;;;;;4.80;4.47;;;17.20;99.90;;;;;;6062416;23;20416;-73
2022/08/14 05:45:41;;;;;;;5.50;5.00;;;17.20;99.90;;;;;;6061774;23;20763;-74
2022/08/14 05:48:15;;;;;;;5.30;4.90;;;17.20;99.90;;;;;;6062049;23;21006;-74
2022/08/14 05:50:42;;;;;;;5.43;4.80;;;17.20;99.90;;;;;;6063397;23;20471;-74
2022/08/14 05:53:09;;;;;;;5.63;5.13;;;17.30;99.90;;;;;;6063757;23;20459;-73
2022/08/14 05:55:36;;;;;;;5.70;5.30;;;17.40;99.90;;;;;;6063129;23;20455;-74
2022/08/14 05:58:05;;;;;;;5.60;5.20;;;17.60;99.90;;;;;;6063362;23;20749;-74
2022/08/14 06:00:35;;;;;;;7.63;5.10;;;17.80;99.90;;;;;;6063517;23;20423;-74
2022/08/14 06:03:04;;;;;;;5.73;5.23;;;18.00;99.90;;;;;;6063468;23;20778;-74
2022/08/14 06:05:33;;;;;;;5.20;4.80;;;18.10;99.90;;;;;;6062885;23;20803;-74
2022/08/14 06:08:00;;;;;;;5.57;5.17;;;18.20;99.90;;;;;;6063664;23;20775;-74
2022/08/14 06:10:29;;;;;;;5.30;4.90;;;18.30;99.90;;;;;;6063300;23;20423;-74
2022/08/14 06:12:57;;;;;;;4.93;4.53;;;18.40;99.90;;;;;;6063145;23;20447;-74
2022/08/14 06:15:25;;;;;;;5.47;5.07;;;18.50;99.90;;;;;;6063135;23;20423;-74
2022/08/14 06:17:55;;;;;;;4.90;4.60;;;18.60;99.90;;;;;;6063754;23;20426;-74
2022/08/14 06:20:23;;;;;;;4.73;4.40;;;18.60;99.90;;;;;;6063436;23;20482;-74
2022/08/14 06:22:52;;;;;;;5.23;4.83;;;18.70;99.90;;;;;;6063824;23;20420;-74
2022/08/14 06:25:19;;;;;;;5.37;5.03;;;18.80;99.90;;;;;;6063280;23;20435;-74
2022/08/14 06:27:47;;;;;;;4.90;4.50;;;18.90;99.90;;;;;;6063023;23;20426;-73
2022/08/14 06:30:16;;;;;;;4.73;4.33;;;18.90;99.90;;;;;;6063606;23;20482;-74
2022/08/14 06:32:43;;;;;;;5.30;4.80;;;18.90;99.90;;;;;;6063468;23;20428;-74
2022/08/14 06:35:13;;;;;;;4.97;4.57;;;19.00;99.90;;;;;;6063247;23;20486;-74
2022/08/14 06:37:42;;;;;;;4.83;4.50;;;19.10;99.90;;;;;;6063378;23;20416;-74
2022/08/14 06:40:12;;;;;;;4.77;4.40;;;19.20;99.90;;;;;;6062949;23;20435;-74
2022/08/14 06:42:40;;;;;;;4.87;4.37;;;19.30;99.90;;;;;;6063280;23;20415;-74
2022/08/14 06:45:08;;;;;;;5.40;5.00;;;19.30;99.90;;;;;;6062916;23;20430;-74
2022/08/14 06:47:36;;;;;;;5.17;4.73;;;19.30;99.90;;;;;;6063251;23;20439;-74
2022/08/14 06:50:04;;;;;;;4.63;4.33;;;19.40;99.90;;;;;;6063462;23;20428;-74
2022/08/14 06:52:31;;;;;;;4.47;4.17;;;19.40;99.90;;;;;;6063227;23;20463;-74
2022/08/14 06:54:58;;;;;;;4.43;4.13;;;19.60;99.90;;;;;;6062453;23;20420;-74
2022/08/14 06:57:37;;;;;;;5.17;4.80;;;19.70;99.90;;;;;;6063415;23;20426;-74
2022/08/14 07:00:07;;;;;;;4.47;4.17;;;19.90;99.30;;;;;;6063436;23;20802;-74
2022/08/14 07:08:04;;;;;;;4.50;4.20;;;20.50;97.00;;;;;;6063190;23;20940;-74
2022/08/14 07:10:32;;;;;;;4.17;3.87;;;20.60;97.40;;;;;;6063153;23;20502;-75
2022/08/14 07:13:01;;;;;;;3.90;3.70;;;21.00;96.90;;;;;;6063058;23;20836;-74
2022/08/14 07:15:28;;;;;;;3.90;3.70;;;21.10;96.10;;;;;;6062450;23;20446;-74
2022/08/14 07:17:55;;;;;;;3.63;3.43;;;21.50;95.80;;;;;;6062933;23;20458;-74
2022/08/14 07:20:22;;;;;;;3.60;3.30;;;21.90;95.20;;;;;;6063404;23;20494;-74
2022/08/14 07:22:50;;;;;;;3.67;3.37;;;22.30;94.50;;;;;;6063477;23;20440;-75
2022/08/14 07:25:18;;;;;;;4.93;3.47;;;22.80;93.10;;;;;;6062961;23;20439;-74
2022/08/14 07:27:45;;;;;;;3.63;3.33;;;23.40;92.30;;;;;;6062694;23;20492;-74
2022/08/14 07:30:14;;;;;;;3.40;3.20;;;24.00;90.40;;;;;;6062803;23;20423;-74
2022/08/14 07:32:41;;;;;;;3.67;3.30;;;24.50;87.30;;;;;;6063124;23;21020;-74
2022/08/14 07:35:08;;;;;;;3.10;2.90;;;24.80;83.50;;;;;;6062602;23;20560;-74
2022/08/14 07:37:36;;;;;;;3.30;3.00;;;24.80;81.20;;;;;;6063934;23;20425;-74
2022/08/14 07:40:05;;;;;;;3.33;3.13;;;24.90;80.90;;;;;;6064075;23;20465;-75
2022/08/14 07:42:32;;;;;;;3.20;3.00;;;25.10;79.90;;;;;;6063843;23;20503;-75
2022/08/14 07:45:00;;;;;;;2.93;2.73;;;25.50;78.60;;;;;;6062707;23;20439;-74
2022/08/14 07:47:28;;;;;;;3.53;3.33;;;25.80;77.30;;;;;;6063050;23;20440;-75
2022/08/14 07:50:02;;;;;;;3.33;3.07;;;26.10;74.00;;;;;;6062982;23;20502;-75
2022/08/14 07:52:29;;;;;;;4.27;3.97;;;26.10;73.10;;;;;;6063110;23;20467;-75
2022/08/14 07:54:56;;;;;;;3.40;3.20;;;26.20;72.70;;;;;;6062737;23;20420;-75
2022/08/14 07:57:25;;;;;;;2.83;2.63;;;26.30;71.50;;;;;;6062929;23;20431;-75
2022/08/14 07:59:52;;;;;;;2.80;2.60;;;26.30;72.00;;;;;;6062617;23;20763;-75
2022/08/14 08:02:20;;;;;;;3.43;3.07;;;26.70;72.10;;;;;;6063259;23;20457;-75
2022/08/14 08:04:50;;;;;;;3.37;3.13;;;26.80;70.90;;;;;;6062891;23;20407;-75
2022/08/14 08:07:17;;;;;;;3.77;3.37;;;26.80;69.70;;;;;;6062909;23;20485;-75
2022/08/14 08:09:50;;;;;;;3.00;2.80;;;26.90;68.60;;;;;;6062726;23;20451;-75
2022/08/14 08:12:20;;;;;;;3.10;2.90;;;27.00;68.00;;;;;;6061506;23;20474;-76
2022/08/14 08:14:49;;;;;;;3.30;3.07;;;27.00;68.20;;;;;;6062797;23;20427;-76
2022/08/14 08:17:19;;;;;;;2.70;2.60;;;27.30;69.10;;;;;;6062680;23;20907;-75
2022/08/14 08:19:48;;;;;;;2.97;2.77;;;27.60;65.60;;;;;;6062388;23;20478;-75
2022/08/14 08:22:15;;;;;;;3.43;3.17;;;27.70;65.50;;;;;;6062878;23;20427;-75
2022/08/14 08:24:42;;;;;;;3.33;2.90;;;28.00;65.10;;;;;;6062566;23;20425;-75
2022/08/14 08:27:16;;;;;;;3.00;2.80;;;28.20;62.70;;;;;;6062475;23;20428;-75
2022/08/14 08:29:43;;;;;;;3.50;3.20;;;28.30;63.10;;;;;;6062565;23;20438;-75
2022/08/14 08:32:10;;;;;;;3.07;2.77;;;28.60;62.00;;;;;;6062619;23;20891;-75
2022/08/14 08:34:45;;;;;;;2.90;2.70;;;28.90;61.00;;;;;;6062711;23;20498;-74
2022/08/14 08:37:14;;;;;;;3.10;2.80;;;29.00;59.30;;;;;;6062728;23;20458;-75
2022/08/14 08:39:45;;;;;;;2.77;2.57;;;29.00;58.60;;;;;;6062642;23;21012;-76
2022/08/14 08:42:12;;;;;;;3.23;2.90;;;29.10;58.30;;;;;;6063071;23;20566;-75
2022/08/14 08:44:39;;;;;;;2.90;2.70;;;29.10;58.80;;;;;;6062671;23;20420;-75
2022/08/14 08:47:06;;;;;;;2.70;2.50;;;29.40;57.80;;;;;;6062415;23;20504;-76
2022/08/14 08:49:42;;;;;;;2.80;2.60;;;29.70;57.40;;;;;;6062314;23;20439;-76
2022/08/14 08:52:09;;;;;;;3.10;2.80;;;30.10;56.70;;;;;;6062925;23;20470;-75
2022/08/14 08:54:38;;;;;;;2.73;2.50;;;30.50;55.20;;;;;;6062309;23;20412;-76
2022/08/14 08:57:11;;;;;;;2.60;2.50;;;30.70;55.00;;;;;;6062503;23;20423;-75
2022/08/14 08:59:38;;;;;;;2.70;2.50;;;30.50;54.60;;;;;;6062445;23;20466;-75
2022/08/14 09:02:08;;;;;;;2.80;2.60;;;30.30;54.70;;;;;;6062366;23;20509;-75
2022/08/14 09:04:38;;;;;;;2.80;2.60;;;30.30;54.90;;;;;;6062734;23;20501;-75
2022/08/14 09:07:06;;;;;;;3.73;3.20;;;30.40;55.50;;;;;;6062306;23;20490;-75
2022/08/14 09:09:33;;;;;;;2.67;2.47;;;30.40;54.70;;;;;;6062278;23;20439;-75
2022/08/14 09:12:06;;;;;;;3.17;2.97;;;30.50;55.10;;;;;;6062000;23;20459;-76
2022/08/14 09:14:33;;;;;;;3.33;3.10;;;30.70;54.80;;;;;;6062716;23;20586;-75
2022/08/14 09:17:01;;;;;;;2.93;2.67;;;31.10;54.20;;;;;;6061977;23;20918;-76
2022/08/14 09:19:28;;;;;;;3.10;2.90;;;31.60;53.50;;;;;;6062489;23;20444;-76
2022/08/14 09:21:56;;;;;;;2.80;2.60;;;32.00;52.20;;;;;;6062700;23;20513;-76
2022/08/14 09:24:23;;;;;;;2.67;2.57;;;32.50;52.00;;;;;;6062591;23;20419;-76
2022/08/14 09:26:51;;;;;;;3.17;2.87;;;32.80;50.90;;;;;;6063001;23;20427;-76
2022/08/14 09:29:19;;;;;;;2.90;2.70;;;32.90;49.90;;;;;;6063294;23;20791;-75
2022/08/14 09:31:49;;;;;;;3.13;2.93;;;32.50;50.20;;;;;;6063871;23;20475;-75
2022/08/14 09:34:22;;;;;;;2.93;2.73;;;32.20;50.70;;;;;;6063866;23;20832;-76
2022/08/14 09:37:08;;;;;;;2.90;2.70;;;32.20;50.50;;;;;;6063129;23;20438;-75
2022/08/14 09:39:49;;;;;;;2.60;2.50;;;32.30;50.60;;;;;;6063519;23;20427;-75
2022/08/14 09:42:33;;;;;;;2.70;2.50;;;32.30;50.30;;;;;;6063893;23;20505;-75
2022/08/14 09:45:13;;;;;;;3.27;3.07;;;32.20;50.80;;;;;;6063592;23;20419;-75
2022/08/14 09:47:43;;;;;;;3.90;3.60;;;31.90;49.50;;;;;;6063196;23;20445;-76
2022/08/14 09:50:21;;;;;;;3.20;3.00;;;31.90;50.70;;;;;;6063372;23;20771;-76
2022/08/14 09:52:52;;;;;;;3.10;2.90;;;32.00;50.30;;;;;;6063575;23;20558;-76
2022/08/14 09:55:21;;;;;;;3.50;3.20;;;32.00;50.30;;;;;;6063432;23;20419;-75
2022/08/14 09:57:49;;;;;;;3.13;2.93;;;32.00;49.60;;;;;;6063345;23;20435;-75
2022/08/14 10:00:19;;;;;;;2.93;2.83;;;32.20;48.90;;;;;;6063483;23;20423;-75
2022/08/14 10:02:53;;;;;;;3.30;3.00;;;32.00;49.40;;;;;;6063287;23;20918;-75
2022/08/14 10:05:32;;;;;;;2.87;2.67;;;31.90;50.00;;;;;;6062878;23;20790;-75
2022/08/14 10:08:00;;;;;;;3.50;3.30;;;32.00;50.00;;;;;;6062599;23;20509;-75
2022/08/14 10:10:32;;;;;;;3.30;3.10;;;32.00;49.00;;;;;;6063289;23;20423;-75
2022/08/14 10:13:01;;;;;;;3.33;3.13;;;32.10;48.50;;;;;;6063138;23;20826;-75
2022/08/14 10:15:31;;;;;;;3.57;3.30;;;32.00;48.50;;;;;;6063492;23;20473;-75
2022/08/14 10:18:08;;;;;;;3.10;2.90;;;32.00;49.50;;;;;;6063461;23;20526;-75
2022/08/14 10:20:40;;;;;;;2.97;2.77;;;32.20;48.60;;;;;;6063325;23;20522;-75
2022/08/14 10:23:11;;;;;;;3.30;3.10;;;32.30;48.50;;;;;;6063392;23;20427;-75
2022/08/14 10:25:44;;;;;;;3.27;3.07;;;32.70;49.00;;;;;;6063516;23;20423;-75
2022/08/14 10:28:14;;;;;;;3.77;3.57;;;33.30;47.40;;;;;;6063547;23;20440;-75
2022/08/14 10:30:46;;;;;;;3.20;3.00;;;33.80;46.70;;;;;;6063347;23;20431;-75
2022/08/14 10:33:25;;;;;;;3.23;3.03;;;33.90;47.20;;;;;;6063337;23;20455;-75
2022/08/14 10:35:52;;;;;;;3.30;3.10;;;34.50;45.60;;;;;;6062704;23;20442;-75
2022/08/14 10:38:31;;;;;;;2.90;2.70;;;34.40;46.00;;;;;;6063597;23;20447;-75
2022/08/14 10:41:12;;;;;;;3.20;3.00;;;34.60;44.70;;;;;;6063179;23;20760;-75
2022/08/14 10:43:40;;;;;;;3.43;3.13;;;34.70;45.30;;;;;;6063376;23;20427;-75
2022/08/14 10:46:15;;;;;;;3.13;2.93;;;34.90;45.10;;;;;;6063032;23;20514;-75
2022/08/14 10:48:54;;;;;;;3.20;3.00;;;34.80;43.70;;;;;;6063031;23;20838;-75
2022/08/14 10:51:25;;;;;;;3.63;3.43;;;34.00;44.60;;;;;;6062884;23;20419;-75
2022/08/14 10:53:55;;;;;;;3.23;3.07;;;33.80;44.70;;;;;;6063460;23;20459;-75
2022/08/14 10:56:32;;;;;;;3.47;3.27;;;33.20;45.10;;;;;;6063208;23;20447;-75
2022/08/14 10:59:03;;;;;;;3.73;3.53;;;33.10;45.70;;;;;;6063587;23;20441;-75
2022/08/14 11:01:33;;;;;;;3.20;3.00;;;33.50;46.50;;;;;;6063212;23;20423;-75
2022/08/14 11:04:01;;;;;;;3.60;3.40;;;33.60;45.00;;;;;;6063390;23;20423;-75
2022/08/14 11:06:31;;;;;;;3.47;3.27;;;33.60;44.00;;;;;;6062856;23;20510;-75
2022/08/14 11:08:58;;;;;;;4.70;3.37;;;33.30;44.80;;;;;;6062986;23;20893;-75
2022/08/14 11:11:26;;;;;;;3.70;3.50;;;33.00;45.70;;;;;;6062863;23;20443;-74
2022/08/14 11:13:56;;;;;;;3.43;3.17;;;33.10;45.10;;;;;;6063168;23;20463;-75
2022/08/14 11:16:25;;;;;;;3.43;3.00;;;33.20;44.80;;;;;;6063167;23;20492;-75
2022/08/14 11:18:55;;;;;;;3.10;2.90;;;33.00;44.60;;;;;;6062879;23;20973;-75
2022/08/14 11:21:22;;;;;;;3.60;3.40;;;32.40;45.40;;;;;;6062993;23;20964;-75
2022/08/14 11:23:50;;;;;;;3.50;3.30;;;32.20;45.90;;;;;;6062813;23;20426;-76
2022/08/14 11:26:18;;;;;;;3.67;3.37;;;32.50;45.10;;;;;;6063175;23;20420;-75
2022/08/14 11:28:48;;;;;;;3.70;3.50;;;32.50;45.40;;;;;;6063035;23;20519;-74
2022/08/14 11:31:18;;;;;;;3.60;3.17;;;32.60;45.30;;;;;;6063281;23;20510;-75
2022/08/14 11:33:50;;;;;;;4.00;3.70;;;32.80;45.00;;;;;;6063232;23;20482;-75
2022/08/14 11:36:25;;;;;;;3.30;3.10;;;33.00;45.30;;;;;;6062608;23;20459;-75
2022/08/14 11:38:52;;;;;;;3.77;3.57;;;33.00;44.60;;;;;;6063146;23;20471;-75
2022/08/14 11:41:20;;;;;;;4.03;3.73;;;32.50;44.90;;;;;;6063246;23;20462;-75
2022/08/14 11:43:49;;;;;;;3.63;3.33;;;32.70;45.50;;;;;;6063163;23;20974;-75
2022/08/14 11:46:16;;;;;;;3.53;3.33;;;32.90;44.50;;;;;;6062419;23;20424;-75
2022/08/14 11:48:48;;;;;;;3.67;3.47;;;33.00;44.90;;;;;;6062878;23;20482;-76
2022/08/14 11:51:19;;;;;;;3.87;3.67;;;32.90;44.80;;;;;;6064372;23;20459;-75
2022/08/14 11:53:52;;;;;;;3.70;3.50;;;32.70;45.10;;;;;;6063956;23;20467;-75
2022/08/14 11:56:19;;;;;;;3.37;3.17;;;33.00;44.60;;;;;;6063369;23;20438;-75
2022/08/14 11:58:51;;;;;;;3.70;3.50;;;33.30;43.70;;;;;;6062887;23;20867;-76
2022/08/14 12:01:29;;;;;;;3.57;3.33;;;33.60;43.30;;;;;;6062824;23;20427;-75
2022/08/14 12:04:08;;;;;;;3.80;3.57;;;33.80;43.10;;;;;;6062935;23;20427;-75
2022/08/14 12:06:51;;;;;;;3.90;3.53;;;33.90;43.50;;;;;;6062779;23;20431;-75
2022/08/14 12:09:29;;;;;;;4.07;3.67;;;34.20;43.50;;;;;;6063011;23;20444;-75
2022/08/14 12:11:57;;;;;;;4.03;3.73;;;34.70;42.70;;;;;;6062802;23;20436;-75
2022/08/14 12:14:24;;;;;;;3.60;3.40;;;34.80;42.00;;;;;;6063119;23;20551;-75
2022/08/14 12:17:03;;;;;;;3.57;3.30;;;34.80;42.10;;;;;;6062443;23;20423;-76
2022/08/14 12:19:31;;;;;;;3.77;3.47;;;34.70;42.20;;;;;;6063156;23;20438;-75
2022/08/14 12:21:59;;;;;;;4.00;3.70;;;34.50;42.10;;;;;;6062798;23;20471;-75
2022/08/14 12:24:30;;;;;;;3.67;3.47;;;34.50;42.20;;;;;;6063313;23;20777;-75
2022/08/14 12:26:57;;;;;;;3.67;3.37;;;34.80;42.70;;;;;;6062287;23;20811;-75
2022/08/14 12:29:24;;;;;;;3.40;3.20;;;34.70;42.70;;;;;;6063060;23;20428;-75
2022/08/14 12:32:05;;;;;;;3.10;3.00;;;35.00;42.20;;;;;;6062964;23;20426;-75
2022/08/14 12:34:35;;;;;;;3.13;2.93;;;35.70;40.80;;;;;;6062743;23;20466;-75
2022/08/14 12:37:06;;;;;;;3.37;3.17;;;36.10;40.30;;;;;;6062463;23;20989;-75
2022/08/14 12:39:35;;;;;;;3.50;3.30;;;36.30;40.00;;;;;;6062936;23;20447;-76
2022/08/14 12:42:06;;;;;;;3.83;3.53;;;36.40;39.30;;;;;;6062823;23;20611;-75
2022/08/14 12:44:34;;;;;;;3.60;3.40;;;36.20;39.50;;;;;;6062905;23;20941;-75
2022/08/14 12:47:13;;;;;;;3.50;3.20;;;36.20;40.10;;;;;;6062137;23;20941;-75
2022/08/14 12:49:51;;;;;;;3.23;3.03;;;36.20;40.50;;;;;;6062664;23;20925;-75
2022/08/14 12:52:30;;;;;;;3.20;3.00;;;36.10;39.60;;;;;;6062876;23;20431;-75
2022/08/14 12:54:58;;;;;;;3.30;3.00;;;36.00;39.80;;;;;;6062390;23;20490;-75
2022/08/14 12:57:34;;;;;;;3.50;3.30;;;36.50;39.70;;;;;;6062594;23;20436;-75
2022/08/14 13:00:21;;;;;;;3.17;3.03;;;37.30;39.20;;;;;;6062913;23;20514;-75
2022/08/14 13:02:50;;;;;;;3.00;2.80;;;37.70;37.50;;;;;;6062836;23;20534;-75
2022/08/14 13:05:22;;;;;;;3.33;3.03;;;37.30;37.20;;;;;;6062465;23;20427;-75
2022/08/14 13:07:50;;;;;;;3.03;2.83;;;37.20;36.90;;;;;;6062471;23;20440;-74
2022/08/14 13:10:20;;;;;;;3.10;2.90;;;37.10;37.10;;;;;;6062866;23;20428;-75
2022/08/14 13:12:49;;;;;;;2.83;2.63;;;36.80;36.70;;;;;;6062203;23;20459;-75
2022/08/14 13:15:18;;;;;;;3.43;3.23;;;37.10;35.60;;;;;;6062502;23;20510;-75